Time;durP1;ratioP1;P1;durP2;ratioP2;P2;SDS_P1;SDS_P2;PMS_P1;PMS_P2;Temp;Humidity;BMP_temperature;BMP_pressure;BME280_temperature;BME280_humidity;BME280_pressure;Samples;Min_cycle;Max_cycle;Signal;HPM_P1;HPM_P2
2022/12/15 00:40:58;;;;;;;39.00;23.80;;;;;;;;;;5017592;28;20033;-77
2022/12/15 00:43:24;;;;;;;38.97;22.05;;;;;;;;;;5017285;28;20042;-76
2022/12/15 00:48:34;;;;;;;31.48;18.67;;;;;;;;;;4999559;28;20037;-75
2022/12/15 00:50:59;;;;;;;36.83;20.08;;;;;;;;;;5017306;28;20032;-75
2022/12/15 01:20:44;;;;;;;36.58;21.48;;;;;;;;;;5015930;28;20049;-75
2022/12/15 01:23:09;;;;;;;33.17;20.25;;;;;;;;;;4998077;28;20030;-75
2022/12/15 01:25:36;;;;;;;35.33;21.05;;;;;;;;;;5016333;28;20037;-75
2022/12/15 01:28:02;;;;;;;31.88;20.20;;;;;;;;;;5015894;28;20022;-76
2022/12/15 01:30:27;;;;;;;35.92;20.92;;;;;;;;;;5016774;28;20121;-75
2022/12/15 01:32:52;;;;;;;39.45;21.08;;;;;;;;;;5016065;28;20022;-76
2022/12/15 01:35:18;;;;;;;34.28;20.27;;;;;;;;;;4998824;28;20025;-76
2022/12/15 01:37:44;;;;;;;28.95;19.25;;;;;;;;;;5015683;28;20343;-76
2022/12/15 01:42:58;;;;;;;34.85;20.73;;;;;;;;;;5015924;28;20057;-70
2022/12/15 01:45:23;;;;;;;33.78;19.65;;;;;;;;;;5016163;28;20069;-71
2022/12/15 01:47:50;;;;;;;30.33;18.85;;;;;;;;;;4998763;28;20076;-70
2022/12/15 01:50:15;;;;;;;32.65;19.75;;;;;;;;;;5015591;28;20014;-70
2022/12/15 01:52:41;;;;;;;32.20;19.70;;;;;;;;;;5015776;28;20022;-70
2022/12/15 01:55:07;;;;;;;29.40;18.73;;;;;;;;;;5015661;28;20585;-70
2022/12/15 01:57:34;;;;;;;30.25;18.88;;;;;;;;;;5016100;28;20120;-70
2022/12/15 02:00:01;;;;;;;27.42;17.67;;;;;;;;;;5015664;28;20022;-70
2022/12/15 02:02:27;;;;;;;27.75;18.20;;;;;;;;;;4998378;28;20387;-70
2022/12/15 02:04:55;;;;;;;26.25;17.80;;;;;;;;;;5015899;28;20056;-70
2022/12/15 02:07:21;;;;;;;24.88;16.90;;;;;;;;;;4998486;28;20026;-70
2022/12/15 02:09:47;;;;;;;26.33;17.40;;;;;;;;;;5015557;28;20140;-70
2022/12/15 02:12:31;;;;;;;26.85;17.25;;;;;;;;;;5015642;28;20030;-70
2022/12/15 02:15:15;;;;;;;26.48;17.38;;;;;;;;;;5015409;28;20036;-70
2022/12/15 02:18:00;;;;;;;27.42;17.02;;;;;;;;;;5015432;28;20038;-69
2022/12/15 02:20:55;;;;;;;24.27;16.08;;;;;;;;;;4968665;28;20128;-69
2022/12/15 02:23:27;;;;;;;22.45;15.00;;;;;;;;;;4930208;28;20043;-69
2022/12/15 02:26:15;;;;;;;25.02;15.63;;;;;;;;;;5015392;28;20091;-69
2022/12/15 02:28:59;;;;;;;25.23;15.75;;;;;;;;;;4986588;28;20369;-69
2022/12/15 02:31:50;;;;;;;22.02;15.32;;;;;;;;;;4998016;28;20070;-69
2022/12/15 02:34:22;;;;;;;24.65;14.93;;;;;;;;;;4997540;28;20128;-71
2022/12/15 02:36:49;;;;;;;23.10;14.60;;;;;;;;;;4997932;28;20029;-72
2022/12/15 02:39:17;;;;;;;21.92;14.88;;;;;;;;;;4997315;28;20014;-69
2022/12/15 02:41:44;;;;;;;22.88;15.63;;;;;;;;;;5015089;28;20026;-69
2022/12/15 02:44:16;;;;;;;23.45;14.82;;;;;;;;;;5015210;28;20532;-69
2022/12/15 02:46:53;;;;;;;20.08;12.05;;;;;;;;;;5015112;28;20087;-69
2022/12/15 02:49:21;;;;;;;20.13;13.38;;;;;;;;;;5015137;28;20497;-69
2022/12/15 02:51:55;;;;;;;21.83;14.65;;;;;;;;;;5015075;28;20117;-69
2022/12/15 02:54:33;;;;;;;25.63;16.23;;;;;;;;;;5015174;28;20030;-69
2022/12/15 02:57:02;;;;;;;24.45;15.93;;;;;;;;;;5014953;28;20379;-70
2022/12/15 02:59:41;;;;;;;23.90;14.70;;;;;;;;;;4997063;28;20026;-70
2022/12/15 03:02:07;;;;;;;22.38;13.18;;;;;;;;;;5015027;28;20112;-70
2022/12/15 03:04:33;;;;;;;21.55;12.55;;;;;;;;;;5014704;28;20101;-71
2022/12/15 03:07:03;;;;;;;20.02;13.45;;;;;;;;;;4997334;28;20123;-71
2022/12/15 03:09:29;;;;;;;17.77;12.27;;;;;;;;;;4996986;28;20042;-71
2022/12/15 03:11:55;;;;;;;19.73;12.80;;;;;;;;;;4997073;28;20493;-69
2022/12/15 03:14:21;;;;;;;17.30;11.60;;;;;;;;;;4996948;28;20117;-68
2022/12/15 03:16:46;;;;;;;17.35;12.02;;;;;;;;;;5014632;28;20022;-69
2022/12/15 03:19:11;;;;;;;20.45;13.40;;;;;;;;;;5014191;28;20033;-69
2022/12/15 03:21:37;;;;;;;20.08;12.52;;;;;;;;;;4996772;28;20018;-70
2022/12/15 03:24:03;;;;;;;21.20;13.18;;;;;;;;;;5014368;28;20424;-70
2022/12/15 03:26:28;;;;;;;27.30;14.32;;;;;;;;;;4996942;28;20017;-71
2022/12/15 03:28:54;;;;;;;17.17;11.80;;;;;;;;;;5014278;28;20494;-70
2022/12/15 03:31:19;;;;;;;21.58;13.20;;;;;;;;;;5014537;28;20152;-70
2022/12/15 03:33:45;;;;;;;27.42;17.33;;;;;;;;;;5013984;28;20072;-70
2022/12/15 03:36:10;;;;;;;27.02;14.60;;;;;;;;;;5014028;28;20485;-70
2022/12/15 03:38:37;;;;;;;24.70;14.10;;;;;;;;;;5013766;28;20095;-71
2022/12/15 03:41:02;;;;;;;26.05;15.90;;;;;;;;;;4995953;28;20021;-71
2022/12/15 03:43:27;;;;;;;24.08;14.95;;;;;;;;;;5013930;28;20384;-71
2022/12/15 03:45:53;;;;;;;23.67;13.98;;;;;;;;;;4996533;28;20537;-71
2022/12/15 03:48:19;;;;;;;23.98;14.35;;;;;;;;;;4996497;28;20034;-71
2022/12/15 03:50:46;;;;;;;30.48;17.70;;;;;;;;;;4996498;28;20022;-71
2022/12/15 03:53:12;;;;;;;26.48;15.20;;;;;;;;;;4996371;28;20033;-71
2022/12/15 03:55:37;;;;;;;32.22;18.88;;;;;;;;;;5013900;28;20032;-71
2022/12/15 03:58:03;;;;;;;33.60;20.27;;;;;;;;;;5014047;28;20073;-70
2022/12/15 04:00:28;;;;;;;24.27;15.48;;;;;;;;;;5013976;28;20382;-70
2022/12/15 04:02:54;;;;;;;31.45;20.05;;;;;;;;;;5014037;28;20026;-71
2022/12/15 04:05:20;;;;;;;30.17;20.05;;;;;;;;;;5014022;28;20030;-70
2022/12/15 04:07:46;;;;;;;30.70;18.77;;;;;;;;;;5013938;28;20025;-70
2022/12/15 04:10:11;;;;;;;31.30;20.25;;;;;;;;;;5013871;28;20042;-70
2022/12/15 04:12:39;;;;;;;32.35;20.27;;;;;;;;;;5013548;28;20026;-70
2022/12/15 04:15:06;;;;;;;33.83;21.15;;;;;;;;;;4996175;28;20066;-70
2022/12/15 04:17:31;;;;;;;30.35;19.00;;;;;;;;;;4996105;28;20028;-70
2022/12/15 04:20:09;;;;;;;29.98;20.25;;;;;;;;;;5013864;28;20022;-71
2022/12/15 04:22:44;;;;;;;34.17;21.13;;;;;;;;;;5013894;28;20153;-70
2022/12/15 05:33:41;;;;;;;38.13;25.50;;;;;;;;;;5015847;28;20052;-71
2022/12/15 05:36:07;;;;;;;39.42;24.23;;;;;;;;;;5014902;28;20021;-70
2022/12/15 05:38:32;;;;;;;40.35;25.50;;;;;;;;;;4997845;28;20079;-70
2022/12/15 05:40:58;;;;;;;34.10;21.27;;;;;;;;;;4997981;28;20033;-68
2022/12/15 05:43:23;;;;;;;38.85;22.25;;;;;;;;;;5015581;28;20103;-70
2022/12/15 05:45:49;;;;;;;32.50;20.98;;;;;;;;;;4998089;28;20022;-70
2022/12/15 05:48:14;;;;;;;37.72;22.52;;;;;;;;;;5015243;28;20037;-69
2022/12/15 05:50:40;;;;;;;35.97;23.20;;;;;;;;;;5015471;28;20077;-70
2022/12/15 05:53:05;;;;;;;38.03;22.73;;;;;;;;;;5015121;28;20033;-70
2022/12/15 05:55:32;;;;;;;33.85;21.83;;;;;;;;;;5015454;28;20036;-70
2022/12/15 05:57:58;;;;;;;39.92;23.20;;;;;;;;;;5015459;28;20032;-70
2022/12/15 06:00:23;;;;;;;35.92;22.92;;;;;;;;;;5015101;28;20018;-70
2022/12/15 06:02:49;;;;;;;37.55;22.60;;;;;;;;;;5015296;28;20026;-71
2022/12/15 06:05:14;;;;;;;39.95;23.67;;;;;;;;;;5015198;28;20116;-70
2022/12/15 06:07:40;;;;;;;41.90;24.70;;;;;;;;;;5015206;28;20466;-77
2022/12/15 06:10:05;;;;;;;43.05;24.48;;;;;;;;;;4997505;28;20093;-77
2022/12/15 06:12:31;;;;;;;41.60;23.73;;;;;;;;;;4997389;28;20034;-71
2022/12/15 06:14:57;;;;;;;42.88;23.92;;;;;;;;;;5014729;28;20061;-77
2022/12/15 06:17:23;;;;;;;35.53;20.65;;;;;;;;;;5014887;28;20030;-77
2022/12/15 06:19:49;;;;;;;39.20;21.83;;;;;;;;;;5014640;28;20453;-77
2022/12/15 06:22:14;;;;;;;44.00;24.45;;;;;;;;;;5015153;28;20030;-70
2022/12/15 06:24:39;;;;;;;39.55;23.55;;;;;;;;;;5015020;28;20022;-67
2022/12/15 06:27:05;;;;;;;42.35;24.70;;;;;;;;;;5014826;28;20040;-70
2022/12/15 06:29:31;;;;;;;37.10;22.40;;;;;;;;;;5014503;28;20401;-70
2022/12/15 06:31:56;;;;;;;39.90;24.15;;;;;;;;;;5014701;28;20112;-70
2022/12/15 06:34:22;;;;;;;34.85;21.48;;;;;;;;;;5014295;28;20028;-70
2022/12/15 06:36:47;;;;;;;38.90;23.15;;;;;;;;;;5014624;28;20041;-71
2022/12/15 06:39:13;;;;;;;32.58;18.80;;;;;;;;;;5014523;28;20025;-71
2022/12/15 06:41:40;;;;;;;36.30;20.00;;;;;;;;;;4996982;28;20038;-71
2022/12/15 06:44:05;;;;;;;34.38;21.17;;;;;;;;;;5014549;28;20025;-71
2022/12/15 06:46:31;;;;;;;38.10;23.42;;;;;;;;;;5013275;28;20389;-70
2022/12/15 06:48:57;;;;;;;44.35;24.63;;;;;;;;;;5013282;28;20109;-70
2022/12/15 06:51:23;;;;;;;37.90;22.58;;;;;;;;;;5013141;28;20544;-70
2022/12/15 06:53:52;;;;;;;41.17;25.08;;;;;;;;;;5013970;28;20017;-70
2022/12/15 06:56:19;;;;;;;41.95;25.20;;;;;;;;;;4996738;28;20354;-70
2022/12/15 06:58:48;;;;;;;44.33;24.75;;;;;;;;;;5014093;28;20049;-70
2022/12/15 07:01:14;;;;;;;39.38;25.30;;;;;;;;;;5013376;28;20038;-70
2022/12/15 07:03:40;;;;;;;48.00;29.05;;;;;;;;;;5014108;28;20056;-70
2022/12/15 07:06:06;;;;;;;43.13;25.67;;;;;;;;;;4996079;28;20033;-72
2022/12/15 07:08:32;;;;;;;52.78;27.33;;;;;;;;;;5013834;28;20390;-71
2022/12/15 07:10:57;;;;;;;51.15;24.98;;;;;;;;;;5013828;28;20034;-71
2022/12/15 07:13:25;;;;;;;41.83;23.00;;;;;;;;;;5013540;28;20065;-72
2022/12/15 07:15:50;;;;;;;44.33;25.88;;;;;;;;;;5013300;28;20018;-72
2022/12/15 07:18:16;;;;;;;33.63;19.42;;;;;;;;;;5013129;28;20405;-71
2022/12/15 07:20:42;;;;;;;37.58;22.80;;;;;;;;;;4995087;28;20038;-71
2022/12/15 07:23:08;;;;;;;46.25;25.90;;;;;;;;;;4995104;28;20034;-71
2022/12/15 07:25:34;;;;;;;33.90;21.13;;;;;;;;;;5012276;28;20025;-71
2022/12/15 07:28:00;;;;;;;42.38;24.70;;;;;;;;;;5011450;28;20096;-71
2022/12/15 07:30:26;;;;;;;43.45;25.90;;;;;;;;;;4993858;28;20030;-70
2022/12/15 07:32:51;;;;;;;44.65;25.52;;;;;;;;;;5011476;28;20597;-71
2022/12/15 07:35:16;;;;;;;31.40;20.20;;;;;;;;;;5010830;28;20034;-71
2022/12/15 07:37:42;;;;;;;35.47;22.20;;;;;;;;;;5011104;28;20026;-71
2022/12/15 07:40:07;;;;;;;44.13;25.45;;;;;;;;;;5011088;28;20057;-71
2022/12/15 07:42:32;;;;;;;41.40;25.63;;;;;;;;;;5010810;28;20041;-71
2022/12/15 07:44:59;;;;;;;44.90;26.15;;;;;;;;;;4994719;28;20065;-71
2022/12/15 07:47:26;;;;;;;45.35;26.70;;;;;;;;;;5011737;28;20062;-71
2022/12/15 07:49:53;;;;;;;43.35;25.02;;;;;;;;;;5012429;28;20481;-71
2022/12/15 07:52:19;;;;;;;46.00;27.00;;;;;;;;;;4994739;28;20018;-71
2022/12/15 07:54:45;;;;;;;44.85;26.58;;;;;;;;;;5012293;28;20036;-71
2022/12/15 07:57:10;;;;;;;45.78;25.98;;;;;;;;;;5012710;28;20021;-72
2022/12/15 07:59:36;;;;;;;46.20;26.05;;;;;;;;;;4994993;28;20037;-71
2022/12/15 08:02:03;;;;;;;44.50;26.67;;;;;;;;;;5012954;28;20049;-70
2022/12/15 08:04:31;;;;;;;51.10;27.33;;;;;;;;;;5011518;28;20057;-69
2022/12/15 08:06:57;;;;;;;50.67;29.25;;;;;;;;;;5012257;28;20021;-71
2022/12/15 08:09:22;;;;;;;50.55;28.27;;;;;;;;;;5012381;28;20136;-71
2022/12/15 08:11:48;;;;;;;43.30;26.73;;;;;;;;;;5012412;28;20118;-70
2022/12/15 08:14:15;;;;;;;43.40;25.95;;;;;;;;;;4994211;28;20041;-71
2022/12/15 08:16:40;;;;;;;43.72;25.65;;;;;;;;;;4993923;28;20443;-71
2022/12/15 08:19:06;;;;;;;43.35;27.23;;;;;;;;;;5010291;28;20026;-71
2022/12/15 08:21:32;;;;;;;46.95;25.73;;;;;;;;;;4993255;28;20030;-70
2022/12/15 08:23:59;;;;;;;38.70;23.63;;;;;;;;;;4993407;28;20117;-71
2022/12/15 08:26:28;;;;;;;29.58;17.23;;;;;;;;;;5011666;28;20030;-71
2022/12/15 08:28:55;;;;;;;40.75;23.83;;;;;;;;;;4997826;28;20095;-71
2022/12/15 08:31:21;;;;;;;44.97;25.88;;;;;;;;;;5014751;28;20025;-71
2022/12/15 08:33:47;;;;;;;44.15;25.17;;;;;;;;;;4997632;28;20030;-71
2022/12/15 08:36:13;;;;;;;45.40;25.50;;;;;;;;;;4981667;28;20033;-71
2022/12/15 08:38:39;;;;;;;43.78;24.67;;;;;;;;;;4998165;28;20033;-71
2022/12/15 08:41:06;;;;;;;40.70;23.98;;;;;;;;;;5016852;28;20141;-71
2022/12/15 08:43:32;;;;;;;45.65;26.17;;;;;;;;;;5015865;28;20580;-71
2022/12/15 08:45:58;;;;;;;33.30;20.05;;;;;;;;;;5015895;28;20053;-71
2022/12/15 08:48:24;;;;;;;40.88;23.80;;;;;;;;;;5015947;28;20420;-71
2022/12/15 08:50:49;;;;;;;43.13;25.55;;;;;;;;;;5016302;28;20030;-71
2022/12/15 08:53:14;;;;;;;46.20;24.13;;;;;;;;;;5015854;28;20030;-71
2022/12/15 08:55:44;;;;;;;44.05;25.02;;;;;;;;;;5015781;28;20497;-71
2022/12/15 08:58:09;;;;;;;43.20;24.83;;;;;;;;;;4997929;28;20045;-71
2022/12/15 09:00:34;;;;;;;40.90;24.08;;;;;;;;;;5015691;28;20026;-71
2022/12/15 09:03:00;;;;;;;33.97;20.88;;;;;;;;;;4998082;28;20029;-71
2022/12/15 09:05:25;;;;;;;43.88;23.15;;;;;;;;;;5015554;28;20105;-71
2022/12/15 09:07:57;;;;;;;45.85;25.20;;;;;;;;;;5015696;28;20050;-71
2022/12/15 09:10:23;;;;;;;47.20;24.88;;;;;;;;;;4997451;28;20064;-71
2022/12/15 09:12:49;;;;;;;45.15;23.70;;;;;;;;;;4997972;28;20469;-71
2022/12/15 09:15:14;;;;;;;41.47;22.45;;;;;;;;;;5015436;28;20386;-71
2022/12/15 09:17:40;;;;;;;39.10;23.25;;;;;;;;;;5015441;28;20025;-71
2022/12/15 09:20:05;;;;;;;41.15;23.35;;;;;;;;;;5015369;28;20090;-71
2022/12/15 09:22:31;;;;;;;38.70;24.92;;;;;;;;;;5015074;28;20018;-71
2022/12/15 09:24:56;;;;;;;40.25;24.40;;;;;;;;;;4997334;28;20037;-71
2022/12/15 09:27:23;;;;;;;37.15;22.90;;;;;;;;;;5015208;28;20022;-71
2022/12/15 09:29:49;;;;;;;41.30;23.60;;;;;;;;;;5015088;28;20406;-71
2022/12/15 09:32:14;;;;;;;36.55;23.15;;;;;;;;;;4997603;28;20052;-72
2022/12/15 09:34:39;;;;;;;38.70;23.58;;;;;;;;;;5014828;28;20045;-71
2022/12/15 09:37:05;;;;;;;36.25;22.60;;;;;;;;;;5014667;28;20105;-71
2022/12/15 09:39:31;;;;;;;34.88;21.50;;;;;;;;;;5014331;28;20080;-71
2022/12/15 09:41:59;;;;;;;33.67;22.30;;;;;;;;;;5014898;28;20072;-71
2022/12/15 09:44:27;;;;;;;32.83;20.17;;;;;;;;;;4997290;28;20414;-72
2022/12/15 09:46:58;;;;;;;35.60;22.58;;;;;;;;;;5014806;28;20491;-72
2022/12/15 09:49:33;;;;;;;38.75;22.05;;;;;;;;;;5014513;28;20029;-72
2022/12/15 09:52:00;;;;;;;33.05;20.42;;;;;;;;;;4997137;28;20461;-71
2022/12/15 09:54:29;;;;;;;34.13;20.42;;;;;;;;;;4997147;28;20030;-71
2022/12/15 09:56:56;;;;;;;33.92;20.60;;;;;;;;;;5014625;28;20026;-71
2022/12/15 09:59:25;;;;;;;32.40;20.52;;;;;;;;;;5014601;28;20226;-72
2022/12/15 10:01:57;;;;;;;28.08;16.38;;;;;;;;;;5015245;28;20041;-71
2022/12/15 10:04:52;;;;;;;32.30;18.15;;;;;;;;;;4996902;28;20127;-71
2022/12/15 10:07:30;;;;;;;33.28;19.48;;;;;;;;;;4984303;28;20481;-71
2022/12/15 10:09:56;;;;;;;32.85;18.88;;;;;;;;;;5014369;28;20069;-70
2022/12/15 10:12:28;;;;;;;36.42;22.17;;;;;;;;;;5013608;28;20069;-70
2022/12/15 10:15:06;;;;;;;34.88;21.65;;;;;;;;;;5014181;28;20042;-70
2022/12/15 10:17:40;;;;;;;32.67;20.08;;;;;;;;;;4996235;28;20266;-68
2022/12/15 10:20:05;;;;;;;34.35;20.67;;;;;;;;;;5013269;28;20563;-70
2022/12/15 10:22:35;;;;;;;33.58;20.90;;;;;;;;;;4996334;28;20022;-70
2022/12/15 10:25:08;;;;;;;33.30;21.77;;;;;;;;;;5013548;28;20540;-71
2022/12/15 10:27:57;;;;;;;33.08;20.67;;;;;;;;;;4996143;28;20034;-70
2022/12/15 10:30:23;;;;;;;34.45;20.52;;;;;;;;;;5013751;28;20497;-70
2022/12/15 10:32:49;;;;;;;33.90;21.45;;;;;;;;;;5013655;28;20053;-71
2022/12/15 10:35:15;;;;;;;33.63;20.67;;;;;;;;;;4995983;28;20092;-71
2022/12/15 10:37:41;;;;;;;33.63;20.60;;;;;;;;;;5013691;28;20021;-71
2022/12/15 10:40:07;;;;;;;34.30;20.98;;;;;;;;;;4995923;28;20405;-71
2022/12/15 10:42:43;;;;;;;36.47;21.58;;;;;;;;;;5013047;28;20053;-71
2022/12/15 10:45:27;;;;;;;32.88;20.83;;;;;;;;;;5013740;28;20037;-70
2022/12/15 10:47:57;;;;;;;34.17;21.27;;;;;;;;;;5014269;28;20087;-70
2022/12/15 10:50:23;;;;;;;33.08;20.98;;;;;;;;;;5012382;28;20124;-69
2022/12/15 10:52:49;;;;;;;37.05;21.40;;;;;;;;;;4996061;28;20457;-71
2022/12/15 10:55:33;;;;;;;35.88;20.73;;;;;;;;;;4979382;28;20502;-71
2022/12/15 10:58:00;;;;;;;37.50;22.50;;;;;;;;;;5013324;28;20114;-71
2022/12/15 11:00:29;;;;;;;36.63;20.98;;;;;;;;;;5013545;28;20347;-71
2022/12/15 11:02:56;;;;;;;34.22;20.77;;;;;;;;;;5013418;28;20029;-71
2022/12/15 11:05:22;;;;;;;35.10;21.30;;;;;;;;;;5013291;28;20219;-71
2022/12/15 11:07:49;;;;;;;34.47;20.90;;;;;;;;;;4995432;28;20462;-70
2022/12/15 11:10:23;;;;;;;34.47;21.30;;;;;;;;;;4995432;28;20054;-70
2022/12/15 11:12:58;;;;;;;34.58;21.58;;;;;;;;;;4995622;28;20059;-70
2022/12/15 11:15:23;;;;;;;36.28;21.63;;;;;;;;;;5012793;28;20038;-70
2022/12/15 11:17:56;;;;;;;35.80;22.27;;;;;;;;;;5012863;28;20458;-70
2022/12/15 11:20:25;;;;;;;38.92;22.55;;;;;;;;;;4995478;28;20164;-69
2022/12/15 11:23:20;;;;;;;36.58;22.90;;;;;;;;;;5011869;28;20014;-69
2022/12/15 11:25:50;;;;;;;36.53;22.42;;;;;;;;;;5000015;28;20049;-69
2022/12/15 11:28:19;;;;;;;33.33;20.42;;;;;;;;;;5012910;28;20104;-69
2022/12/15 11:30:49;;;;;;;32.72;20.40;;;;;;;;;;4995236;28;20129;-70
2022/12/15 11:33:14;;;;;;;33.08;20.55;;;;;;;;;;4995307;28;20037;-70
2022/12/15 11:35:56;;;;;;;36.47;20.80;;;;;;;;;;5012770;28;20022;-70
2022/12/15 11:38:25;;;;;;;32.70;20.80;;;;;;;;;;5012315;28;20026;-70
2022/12/15 11:40:51;;;;;;;33.38;21.00;;;;;;;;;;5012872;28;20149;-71
2022/12/15 11:43:32;;;;;;;35.58;20.95;;;;;;;;;;4994952;28;20026;-71
2022/12/15 11:46:08;;;;;;;37.92;21.17;;;;;;;;;;5011125;28;20388;-71
2022/12/15 11:48:39;;;;;;;41.72;23.58;;;;;;;;;;5012376;28;20037;-71
2022/12/15 11:51:09;;;;;;;40.08;22.27;;;;;;;;;;4994505;28;20143;-70
2022/12/15 11:53:37;;;;;;;35.13;20.92;;;;;;;;;;5012640;28;20022;-71
2022/12/15 11:56:20;;;;;;;34.10;21.50;;;;;;;;;;4995510;28;20030;-70
2022/12/15 11:58:58;;;;;;;36.95;21.65;;;;;;;;;;5012422;28;20026;-70
2022/12/15 12:01:32;;;;;;;36.42;21.48;;;;;;;;;;5013109;28;20050;-71
2022/12/15 12:04:03;;;;;;;34.83;20.92;;;;;;;;;;5016550;28;20446;-68
2022/12/15 12:06:53;;;;;;;37.10;21.73;;;;;;;;;;4999161;28;20073;-70
2022/12/15 12:09:26;;;;;;;36.15;20.60;;;;;;;;;;4988806;28;20053;-70
2022/12/15 12:11:55;;;;;;;35.20;20.67;;;;;;;;;;4998670;28;20034;-71
2022/12/15 12:14:28;;;;;;;35.47;21.65;;;;;;;;;;5016140;28;20160;-70
2022/12/15 12:17:13;;;;;;;34.55;21.67;;;;;;;;;;5016158;28;20037;-70
2022/12/15 12:19:54;;;;;;;34.72;21.10;;;;;;;;;;4998799;28;20033;-69
2022/12/15 12:22:28;;;;;;;37.92;22.80;;;;;;;;;;5016057;28;20026;-68
2022/12/15 12:25:10;;;;;;;35.05;21.13;;;;;;;;;;5015308;28;20026;-69
2022/12/15 12:27:45;;;;;;;33.33;21.27;;;;;;;;;;5015957;28;20072;-69
2022/12/15 12:30:12;;;;;;;34.38;20.80;;;;;;;;;;5016324;28;20037;-69
2022/12/15 12:32:57;;;;;;;34.92;22.13;;;;;;;;;;5016163;28;20424;-70
2022/12/15 12:35:37;;;;;;;36.72;21.65;;;;;;;;;;5015931;28;20030;-70
2022/12/15 12:38:04;;;;;;;37.45;22.40;;;;;;;;;;4998616;28;20029;-70
2022/12/15 12:40:35;;;;;;;145.38;48.58;;;;;;;;;;4998212;28;20022;-70
2022/12/15 12:43:02;;;;;;;43.05;25.08;;;;;;;;;;4998331;28;20454;-70
2022/12/15 12:45:37;;;;;;;41.63;24.13;;;;;;;;;;5015651;28;20030;-70
2022/12/15 12:48:07;;;;;;;50.70;25.15;;;;;;;;;;5015773;28;20037;-70
2022/12/15 12:50:33;;;;;;;110.47;40.65;;;;;;;;;;5016206;28;20061;-70
2022/12/15 12:52:59;;;;;;;53.65;27.15;;;;;;;;;;4997972;28;20426;-70
2022/12/15 12:55:35;;;;;;;49.00;27.73;;;;;;;;;;4997849;28;20042;-70
2022/12/15 12:58:00;;;;;;;58.22;30.67;;;;;;;;;;4997866;28;20030;-71
2022/12/15 13:00:29;;;;;;;43.55;25.13;;;;;;;;;;4998017;28;20029;-70
2022/12/15 13:03:09;;;;;;;46.45;25.55;;;;;;;;;;5015562;28;20462;-70
2022/12/15 13:05:36;;;;;;;46.70;25.40;;;;;;;;;;5014138;28;20068;-70
2022/12/15 13:08:04;;;;;;;56.90;30.23;;;;;;;;;;4981803;28;20068;-70
2022/12/15 13:10:31;;;;;;;67.07;35.88;;;;;;;;;;5015021;28;20084;-70
2022/12/15 13:12:58;;;;;;;76.40;39.65;;;;;;;;;;4996924;28;20118;-71
2022/12/15 13:15:27;;;;;;;71.47;34.25;;;;;;;;;;5015186;28;20046;-71
2022/12/15 13:18:11;;;;;;;47.70;25.48;;;;;;;;;;4997526;28;20026;-70
2022/12/15 13:20:37;;;;;;;39.38;23.00;;;;;;;;;;5015033;28;20026;-71
2022/12/15 13:23:20;;;;;;;61.97;36.53;;;;;;;;;;5015302;28;20021;-70
2022/12/15 13:25:46;;;;;;;154.75;101.22;;;;;;;;;;5014508;28;20048;-71
2022/12/15 13:28:23;;;;;;;129.25;83.25;;;;;;;;;;5014788;28;20117;-70
2022/12/15 13:31:08;;;;;;;117.03;71.78;;;;;;;;;;4997489;28;20390;-71
2022/12/15 13:33:43;;;;;;;103.20;55.85;;;;;;;;;;5014763;28;20477;-70
2022/12/15 13:36:09;;;;;;;364.60;176.77;;;;;;;;;;5014706;28;20030;-71
2022/12/15 13:38:51;;;;;;;526.20;261.42;;;;;;;;;;5014894;28;20014;-71
2022/12/15 13:41:21;;;;;;;121.28;58.95;;;;;;;;;;4997103;28;20026;-71
2022/12/15 13:43:47;;;;;;;113.05;52.13;;;;;;;;;;5014849;28;20038;-71
2022/12/15 13:46:19;;;;;;;60.38;32.58;;;;;;;;;;5014535;28;20027;-71
2022/12/15 13:48:49;;;;;;;196.82;90.75;;;;;;;;;;4997388;28;20034;-70
2022/12/15 13:51:17;;;;;;;286.40;126.95;;;;;;;;;;5014672;28;20076;-70
2022/12/15 13:53:48;;;;;;;253.40;120.60;;;;;;;;;;5014248;28;20038;-70
2022/12/15 13:56:19;;;;;;;73.30;43.38;;;;;;;;;;4996953;28;20466;-71
2022/12/15 13:58:49;;;;;;;98.50;51.42;;;;;;;;;;5014222;28;20025;-71
2022/12/15 14:01:24;;;;;;;83.43;43.95;;;;;;;;;;4996989;28;20018;-71
2022/12/15 14:04:14;;;;;;;75.28;38.42;;;;;;;;;;5014517;28;20166;-71
2022/12/15 14:06:45;;;;;;;92.45;50.20;;;;;;;;;;4997025;28;20397;-71
2022/12/15 14:09:15;;;;;;;66.25;36.97;;;;;;;;;;5014192;28;20042;-70
2022/12/15 14:11:43;;;;;;;49.70;28.35;;;;;;;;;;5014111;28;20453;-70
2022/12/15 14:14:21;;;;;;;48.03;26.65;;;;;;;;;;4996701;28;20026;-71
2022/12/15 14:16:50;;;;;;;58.03;30.42;;;;;;;;;;5014267;28;20026;-70
2022/12/15 14:19:16;;;;;;;54.72;29.83;;;;;;;;;;5014187;28;20021;-71
2022/12/15 14:21:55;;;;;;;51.40;30.92;;;;;;;;;;5014436;28;20021;-70
2022/12/15 14:24:42;;;;;;;52.55;28.23;;;;;;;;;;5013657;28;20030;-70
2022/12/15 14:27:08;;;;;;;68.43;33.97;;;;;;;;;;5014072;28;20030;-70
2022/12/15 14:29:34;;;;;;;47.75;27.08;;;;;;;;;;4996421;28;20424;-70
2022/12/15 14:32:00;;;;;;;62.90;34.13;;;;;;;;;;4996621;28;20038;-70
2022/12/15 14:34:26;;;;;;;72.35;41.33;;;;;;;;;;4995861;28;20029;-70
2022/12/15 14:36:53;;;;;;;60.80;34.47;;;;;;;;;;5013752;28;20469;-70
2022/12/15 14:39:22;;;;;;;67.45;37.58;;;;;;;;;;5013768;28;20024;-70
2022/12/15 14:41:49;;;;;;;64.45;37.15;;;;;;;;;;4996256;28;20038;-71
2022/12/15 14:44:17;;;;;;;58.72;34.92;;;;;;;;;;5014314;28;20018;-70
2022/12/15 14:46:47;;;;;;;49.38;27.35;;;;;;;;;;5013406;28;20485;-70
2022/12/15 14:49:21;;;;;;;48.72;27.48;;;;;;;;;;5013719;28;20032;-71
2022/12/15 14:51:50;;;;;;;67.65;40.63;;;;;;;;;;5013614;28;20026;-70
2022/12/15 14:54:30;;;;;;;100.10;55.10;;;;;;;;;;5013911;28;20018;-71
2022/12/15 14:57:00;;;;;;;98.13;54.22;;;;;;;;;;5011850;28;20049;-70
2022/12/15 14:59:29;;;;;;;109.38;58.97;;;;;;;;;;5010912;28;20101;-70
2022/12/15 15:02:09;;;;;;;134.60;76.00;;;;;;;;;;5010727;28;20044;-70
2022/12/15 15:04:35;;;;;;;97.93;56.88;;;;;;;;;;5011086;28;20107;-70
2022/12/15 15:07:02;;;;;;;63.90;38.78;;;;;;;;;;4992983;28;20018;-69
2022/12/15 15:09:31;;;;;;;126.43;67.80;;;;;;;;;;5010199;28;20046;-70
2022/12/15 15:12:05;;;;;;;155.63;82.07;;;;;;;;;;4992434;28;20034;-70
2022/12/15 15:14:36;;;;;;;145.95;74.05;;;;;;;;;;5010227;28;20030;-70
2022/12/15 15:17:15;;;;;;;119.35;59.75;;;;;;;;;;5008977;28;20030;-71
2022/12/15 15:19:49;;;;;;;123.15;60.92;;;;;;;;;;4992584;28;20026;-71
2022/12/15 15:22:41;;;;;;;154.25;72.75;;;;;;;;;;5011786;28;20072;-71
2022/12/15 15:25:26;;;;;;;64.32;34.47;;;;;;;;;;4987391;28;20579;-70
2022/12/15 15:28:11;;;;;;;44.97;25.98;;;;;;;;;;4990852;28;20033;-71
2022/12/15 15:30:41;;;;;;;46.17;27.75;;;;;;;;;;5010732;28;20084;-70
2022/12/15 15:33:07;;;;;;;45.15;26.23;;;;;;;;;;4977559;28;20044;-70
2022/12/15 15:35:33;;;;;;;56.97;32.75;;;;;;;;;;5010370;28;20038;-71
2022/12/15 15:38:12;;;;;;;210.65;138.23;;;;;;;;;;4994181;28;20436;-70
2022/12/15 15:40:37;;;;;;;139.32;89.88;;;;;;;;;;5011339;28;20108;-71
2022/12/15 15:43:12;;;;;;;100.97;61.17;;;;;;;;;;4992868;28;20124;-71
2022/12/15 15:45:39;;;;;;;113.78;67.50;;;;;;;;;;5008627;28;20030;-78
2022/12/15 15:48:05;;;;;;;136.43;78.97;;;;;;;;;;4990746;28;20026;-70
2022/12/15 15:50:31;;;;;;;126.90;68.50;;;;;;;;;;5009162;28;20046;-78
2022/12/15 15:52:56;;;;;;;91.43;48.08;;;;;;;;;;4974831;28;20436;-70
2022/12/15 15:55:30;;;;;;;99.05;53.17;;;;;;;;;;5008931;28;20452;-70
2022/12/15 15:57:56;;;;;;;94.20;57.15;;;;;;;;;;5008353;28;20026;-77
2022/12/15 16:00:24;;;;;;;59.60;35.10;;;;;;;;;;5008817;28;20032;-70
2022/12/15 16:02:50;;;;;;;56.00;32.80;;;;;;;;;;4991235;28;20076;-69
2022/12/15 16:05:16;;;;;;;65.80;37.58;;;;;;;;;;5009094;28;20030;-69
2022/12/15 16:07:43;;;;;;;49.47;30.05;;;;;;;;;;4991159;28;20060;-69
2022/12/15 16:10:16;;;;;;;53.80;32.55;;;;;;;;;;4990796;28;20386;-69
2022/12/15 16:12:48;;;;;;;56.05;33.50;;;;;;;;;;5008037;28;20395;-69
2022/12/15 16:15:20;;;;;;;53.53;30.95;;;;;;;;;;4991313;28;20126;-70
2022/12/15 16:17:46;;;;;;;63.75;38.17;;;;;;;;;;4990819;28;20486;-70
2022/12/15 16:20:12;;;;;;;53.03;31.60;;;;;;;;;;5008530;28;20036;-70
2022/12/15 16:22:38;;;;;;;58.60;32.92;;;;;;;;;;4990978;28;20034;-70
2022/12/15 16:25:05;;;;;;;61.17;33.25;;;;;;;;;;4990579;28;20429;-70
2022/12/15 16:27:30;;;;;;;74.53;39.40;;;;;;;;;;4990596;28;20512;-70
2022/12/15 16:29:56;;;;;;;68.53;37.63;;;;;;;;;;5008656;28;20022;-70
2022/12/15 16:32:22;;;;;;;75.10;39.50;;;;;;;;;;5008498;28;20397;-70
2022/12/15 16:34:48;;;;;;;71.95;38.78;;;;;;;;;;4990053;28;20080;-70
2022/12/15 16:37:25;;;;;;;75.13;41.58;;;;;;;;;;4989939;28;20069;-70
2022/12/15 16:39:51;;;;;;;79.90;41.75;;;;;;;;;;5008280;28;20100;-70
2022/12/15 16:42:16;;;;;;;92.95;51.75;;;;;;;;;;4990656;28;20404;-70
2022/12/15 16:44:42;;;;;;;85.28;47.10;;;;;;;;;;5008900;28;20064;-70
2022/12/15 16:47:08;;;;;;;85.40;45.03;;;;;;;;;;5008461;28;20057;-70
2022/12/15 16:49:34;;;;;;;112.28;59.30;;;;;;;;;;5011598;28;20045;-70